Monterrey, Mexico

9:30 AM CST on February 26, 2017 (GMT -0600)
Los Elizondo | | Change Station

Elev 1624 ft 25.79 °N, 100.31 °W | Updated 12 seconds ago

Partly Cloudy
Partly Cloudy
66.5 °F
Feels Like 66.5 °F
N
0.0
Wind Variable Wind from NE
Gusts 0.0 mph

Today
High -- | Low -- °F
--% Chance of Precip.
Yesterday
High -- | Low -- °F
Precip. -- in
Pressure 29.98 in
Visibility 1.0 miles
Clouds Mostly Cloudy 300 ft
Overcast 400 ft
Dew Point 61 °F
Humidity 82%
Rainfall 0.00 in
Snow Depth Not available.
7:06 AM 6:40 PM
New Moon, 0% visible
METAR MMMY 261446Z 29003KT 1SM -DZ BR BKN003 OVC004 17/16 A2996 RMK SLP150 51004 971 60015 8/7//
Pressure 29.98 in
Visibility 1.0 miles
Clouds Mostly Cloudy 300 ft
Overcast 400 ft
Dew Point 61 °F
Humidity 82%
Rainfall 0.00 in
Snow Depth Not available.
7:06 AM 6:40 PM
New Moon, 0% visible
METAR MMMY 261446Z 29003KT 1SM -DZ BR BKN003 OVC004 17/16 A2996 RMK SLP150 51004 971 60015 8/7//

Get Your Daily Forecast Email!

Thanks for signing up!

Be on the lookout for a verification email in your inbox.

You'll start receiving the daily forecast at 8 AM.

×

10-Day Weather Forecast

No radar image for this location.
×

Almanac

Astronomy

Feb. 26, 2017 Rise Set
Actual Time
Civil Twilight
Nautical Twilight
Astronomical Twilight
Moon
Length of Visible Light
Length of Day
Tomorrow will be .
, % of the Moon is Illuminated

Today's Extremes

Country Highs Country Lows

Community

WunderPhotos

Upload Photos

1,962,540 photos uploaded!

WunderBlog® & News

Nearby

Air Quality

  Air Quality AQ Index Pollutant
Not available.

Snow Depth

Station Depth Elevation

Earthquake Activity

City Distance Mag. Time & Date
Minimum magnitude displayed is 2.5.

Coastal Water Temperatures

Place Temperature

Stations

Nearby Weather Stations

Station Location Temp. Windchill Dew Point Humidity Wind Precip. Elev Updated Type